Terminal Aerodrome Forecast
Issued by NWS

Home | Current Version | Previous Version | Text Only | Print | Product List | Glossary On
Versions: 1 2 3 4 5 6 7 8 9 10 11 12 13 14
000
FTUS43 KIWX 010500
TAFSBN
TAF
KSBN 010520Z 0106/0206 09003KT P6SM OVC025
     FM010900 10002KT 5SM BR BKN015
     FM011300 12005KT P6SM BKN025
     FM011600 14008KT P6SM SCT030=

USA.gov is the U.S. government's official web portal to all federal, state and local government web resources and services.